sensor_id;sensor_type;location;lat;lon;timestamp;temperature;humidity
3818;DHT22;1924;48.078;11.516;2022-12-07T00:01:32;3.60;99.90
3818;DHT22;1924;48.078;11.516;2022-12-07T00:04:01;3.50;99.90
3818;DHT22;1924;48.078;11.516;2022-12-07T00:06:31;3.60;99.90
3818;DHT22;1924;48.078;11.516;2022-12-07T00:08:58;3.50;99.90
3818;DHT22;1924;48.078;11.516;2022-12-07T00:11:25;3.50;99.90
3818;DHT22;1924;48.078;11.516;2022-12-07T00:13:53;3.50;99.90
3818;DHT22;1924;48.078;11.516;2022-12-07T00:16:23;3.60;99.90
3818;DHT22;1924;48.078;11.516;2022-12-07T00:18:50;3.40;99.90
3818;DHT22;1924;48.078;11.516;2022-12-07T00:21:19;3.30;99.90
3818;DHT22;1924;48.078;11.516;2022-12-07T00:23:50;3.40;99.90
3818;DHT22;1924;48.078;11.516;2022-12-07T00:26:19;3.40;99.90
3818;DHT22;1924;48.078;11.516;2022-12-07T00:28:46;3.40;99.90
3818;DHT22;1924;48.078;11.516;2022-12-07T00:31:14;3.50;99.90
3818;DHT22;1924;48.078;11.516;2022-12-07T00:33:41;3.50;99.90
3818;DHT22;1924;48.078;11.516;2022-12-07T00:36:10;3.50;99.90
3818;DHT22;1924;48.078;11.516;2022-12-07T00:38:38;3.40;99.90
3818;DHT22;1924;48.078;11.516;2022-12-07T00:41:09;3.40;99.90
3818;DHT22;1924;48.078;11.516;2022-12-07T00:43:37;3.40;99.90
3818;DHT22;1924;48.078;11.516;2022-12-07T00:46:04;3.40;99.90
3818;DHT22;1924;48.078;11.516;2022-12-07T00:48:31;3.40;99.90
3818;DHT22;1924;48.078;11.516;2022-12-07T00:50:58;3.40;99.90
3818;DHT22;1924;48.078;11.516;2022-12-07T00:53:26;3.40;99.90
3818;DHT22;1924;48.078;11.516;2022-12-07T00:55:53;3.30;99.90
3818;DHT22;1924;48.078;11.516;2022-12-07T00:58:22;3.40;99.90
3818;DHT22;1924;48.078;11.516;2022-12-07T01:00:49;3.40;99.90
3818;DHT22;1924;48.078;11.516;2022-12-07T01:03:16;3.40;99.90
3818;DHT22;1924;48.078;11.516;2022-12-07T01:05:49;3.30;99.90
3818;DHT22;1924;48.078;11.516;2022-12-07T01:08:16;3.30;99.90
3818;DHT22;1924;48.078;11.516;2022-12-07T01:10:43;3.40;99.90
3818;DHT22;1924;48.078;11.516;2022-12-07T01:13:10;3.60;99.90
3818;DHT22;1924;48.078;11.516;2022-12-07T01:15:40;3.50;99.90
3818;DHT22;1924;48.078;11.516;2022-12-07T01:18:07;3.50;99.90
3818;DHT22;1924;48.078;11.516;2022-12-07T01:20:34;3.50;99.90
3818;DHT22;1924;48.078;11.516;2022-12-07T01:23:01;3.40;99.90
3818;DHT22;1924;48.078;11.516;2022-12-07T01:25:28;3.40;99.90
3818;DHT22;1924;48.078;11.516;2022-12-07T01:27:55;3.30;99.90
3818;DHT22;1924;48.078;11.516;2022-12-07T01:30:22;3.40;99.90
3818;DHT22;1924;48.078;11.516;2022-12-07T01:32:50;3.40;99.90
3818;DHT22;1924;48.078;11.516;2022-12-07T01:35:17;3.40;99.90
3818;DHT22;1924;48.078;11.516;2022-12-07T01:37:44;3.20;99.90
3818;DHT22;1924;48.078;11.516;2022-12-07T01:40:11;3.30;99.90
3818;DHT22;1924;48.078;11.516;2022-12-07T01:42:38;3.30;99.90
3818;DHT22;1924;48.078;11.516;2022-12-07T01:48:07;3.40;99.90
3818;DHT22;1924;48.078;11.516;2022-12-07T01:50:36;3.30;99.90
3818;DHT22;1924;48.078;11.516;2022-12-07T01:53:06;3.30;99.90
3818;DHT22;1924;48.078;11.516;2022-12-07T01:55:34;3.40;99.90
3818;DHT22;1924;48.078;11.516;2022-12-07T01:58:02;3.40;99.90
3818;DHT22;1924;48.078;11.516;2022-12-07T02:00:30;3.50;99.90
3818;DHT22;1924;48.078;11.516;2022-12-07T02:03:02;3.50;99.90
3818;DHT22;1924;48.078;11.516;2022-12-07T02:05:32;3.40;99.90
3818;DHT22;1924;48.078;11.516;2022-12-07T02:08:00;3.50;99.90
3818;DHT22;1924;48.078;11.516;2022-12-07T02:10:30;3.50;99.90
3818;DHT22;1924;48.078;11.516;2022-12-07T02:13:00;3.40;99.90
3818;DHT22;1924;48.078;11.516;2022-12-07T02:15:36;3.50;99.90
3818;DHT22;1924;48.078;11.516;2022-12-07T02:18:07;3.50;99.90
3818;DHT22;1924;48.078;11.516;2022-12-07T02:20:39;3.50;99.90
3818;DHT22;1924;48.078;11.516;2022-12-07T02:27:11;3.40;99.90
3818;DHT22;1924;48.078;11.516;2022-12-07T02:29:49;3.50;99.90
3818;DHT22;1924;48.078;11.516;2022-12-07T02:32:23;3.50;99.90
3818;DHT22;1924;48.078;11.516;2022-12-07T02:34:56;3.50;99.90
3818;DHT22;1924;48.078;11.516;2022-12-07T02:37:32;3.50;99.90
3818;DHT22;1924;48.078;11.516;2022-12-07T02:40:05;3.50;99.90
3818;DHT22;1924;48.078;11.516;2022-12-07T02:42:38;3.40;99.90
3818;DHT22;1924;48.078;11.516;2022-12-07T02:45:11;3.30;99.90
3818;DHT22;1924;48.078;11.516;2022-12-07T02:47:40;3.40;99.90
3818;DHT22;1924;48.078;11.516;2022-12-07T02:50:08;3.40;99.90
3818;DHT22;1924;48.078;11.516;2022-12-07T02:52:35;3.40;99.90
3818;DHT22;1924;48.078;11.516;2022-12-07T02:55:04;3.30;99.90
3818;DHT22;1924;48.078;11.516;2022-12-07T02:57:50;3.30;99.90
3818;DHT22;1924;48.078;11.516;2022-12-07T03:00:21;3.30;99.90
3818;DHT22;1924;48.078;11.516;2022-12-07T03:02:53;3.30;99.90
3818;DHT22;1924;48.078;11.516;2022-12-07T03:05:33;3.50;99.90
3818;DHT22;1924;48.078;11.516;2022-12-07T03:08:07;3.40;99.90
3818;DHT22;1924;48.078;11.516;2022-12-07T03:10:42;3.20;99.90
3818;DHT22;1924;48.078;11.516;2022-12-07T03:13:18;3.30;99.90
3818;DHT22;1924;48.078;11.516;2022-12-07T03:15:51;3.50;99.90
3818;DHT22;1924;48.078;11.516;2022-12-07T03:18:21;3.30;99.90
3818;DHT22;1924;48.078;11.516;2022-12-07T03:20:53;3.20;99.90
3818;DHT22;1924;48.078;11.516;2022-12-07T03:23:23;3.20;99.90
3818;DHT22;1924;48.078;11.516;2022-12-07T03:25:56;3.30;99.90
3818;DHT22;1924;48.078;11.516;2022-12-07T03:28:27;3.30;99.90
3818;DHT22;1924;48.078;11.516;2022-12-07T03:30:59;3.20;99.90
3818;DHT22;1924;48.078;11.516;2022-12-07T03:33:30;3.20;99.90
3818;DHT22;1924;48.078;11.516;2022-12-07T03:36:02;3.10;99.90
3818;DHT22;1924;48.078;11.516;2022-12-07T03:38:35;3.20;99.90
3818;DHT22;1924;48.078;11.516;2022-12-07T03:41:07;3.20;99.90
3818;DHT22;1924;48.078;11.516;2022-12-07T03:43:36;3.20;99.90
3818;DHT22;1924;48.078;11.516;2022-12-07T03:46:10;3.20;99.90
3818;DHT22;1924;48.078;11.516;2022-12-07T03:48:47;3.20;99.90
3818;DHT22;1924;48.078;11.516;2022-12-07T03:51:22;3.20;99.90
3818;DHT22;1924;48.078;11.516;2022-12-07T03:53:56;3.20;99.90
3818;DHT22;1924;48.078;11.516;2022-12-07T03:56:25;3.20;99.90
3818;DHT22;1924;48.078;11.516;2022-12-07T03:58:52;3.10;99.90
3818;DHT22;1924;48.078;11.516;2022-12-07T04:01:22;3.10;99.90
3818;DHT22;1924;48.078;11.516;2022-12-07T04:03:49;3.20;99.90
3818;DHT22;1924;48.078;11.516;2022-12-07T04:06:16;3.20;99.90
3818;DHT22;1924;48.078;11.516;2022-12-07T04:08:44;3.20;99.90
3818;DHT22;1924;48.078;11.516;2022-12-07T04:11:11;3.30;99.90
3818;DHT22;1924;48.078;11.516;2022-12-07T04:13:38;3.30;99.90
3818;DHT22;1924;48.078;11.516;2022-12-07T04:16:18;3.40;99.90
3818;DHT22;1924;48.078;11.516;2022-12-07T04:18:46;3.40;99.90
3818;DHT22;1924;48.078;11.516;2022-12-07T04:21:13;3.40;99.90
3818;DHT22;1924;48.078;11.516;2022-12-07T04:23:40;3.50;99.90
3818;DHT22;1924;48.078;11.516;2022-12-07T04:26:07;3.40;99.90
3818;DHT22;1924;48.078;11.516;2022-12-07T04:28:33;3.40;99.90
3818;DHT22;1924;48.078;11.516;2022-12-07T04:31:00;3.30;99.90
3818;DHT22;1924;48.078;11.516;2022-12-07T04:33:27;3.40;99.90
3818;DHT22;1924;48.078;11.516;2022-12-07T04:35:55;3.40;99.90
3818;DHT22;1924;48.078;11.516;2022-12-07T04:38:22;3.40;99.90
3818;DHT22;1924;48.078;11.516;2022-12-07T04:40:49;3.40;99.90
3818;DHT22;1924;48.078;11.516;2022-12-07T04:43:16;3.40;99.90
3818;DHT22;1924;48.078;11.516;2022-12-07T04:45:46;3.30;99.90
3818;DHT22;1924;48.078;11.516;2022-12-07T05:01:12;3.30;99.90
3818;DHT22;1924;48.078;11.516;2022-12-07T05:03:39;3.20;99.90
3818;DHT22;1924;48.078;11.516;2022-12-07T05:06:07;3.10;99.90
3818;DHT22;1924;48.078;11.516;2022-12-07T05:08:34;3.20;99.90
3818;DHT22;1924;48.078;11.516;2022-12-07T05:11:02;3.10;99.90
3818;DHT22;1924;48.078;11.516;2022-12-07T05:13:29;3.10;99.90
3818;DHT22;1924;48.078;11.516;2022-12-07T05:15:56;3.10;99.90
3818;DHT22;1924;48.078;11.516;2022-12-07T05:18:24;3.00;99.90
3818;DHT22;1924;48.078;11.516;2022-12-07T05:20:51;3.00;99.90
3818;DHT22;1924;48.078;11.516;2022-12-07T05:23:18;2.90;99.90
3818;DHT22;1924;48.078;11.516;2022-12-07T05:25:45;2.90;99.90
3818;DHT22;1924;48.078;11.516;2022-12-07T05:28:12;2.80;99.90
3818;DHT22;1924;48.078;11.516;2022-12-07T05:30:39;2.90;99.90
3818;DHT22;1924;48.078;11.516;2022-12-07T05:33:06;3.00;99.90
3818;DHT22;1924;48.078;11.516;2022-12-07T05:35:34;3.00;99.90
3818;DHT22;1924;48.078;11.516;2022-12-07T05:38:03;3.10;99.90
3818;DHT22;1924;48.078;11.516;2022-12-07T05:40:30;3.20;99.90
3818;DHT22;1924;48.078;11.516;2022-12-07T05:42:56;3.20;99.90
3818;DHT22;1924;48.078;11.516;2022-12-07T05:45:23;3.20;99.90
3818;DHT22;1924;48.078;11.516;2022-12-07T05:47:50;3.10;99.90
3818;DHT22;1924;48.078;11.516;2022-12-07T05:50:17;3.20;99.90
3818;DHT22;1924;48.078;11.516;2022-12-07T05:52:45;3.10;99.90
3818;DHT22;1924;48.078;11.516;2022-12-07T05:55:11;3.10;99.90
3818;DHT22;1924;48.078;11.516;2022-12-07T05:57:38;3.10;99.90
3818;DHT22;1924;48.078;11.516;2022-12-07T06:00:06;3.20;99.90
3818;DHT22;1924;48.078;11.516;2022-12-07T06:02:32;3.20;99.90
3818;DHT22;1924;48.078;11.516;2022-12-07T06:04:59;3.30;99.90
3818;DHT22;1924;48.078;11.516;2022-12-07T06:07:25;3.20;99.90
3818;DHT22;1924;48.078;11.516;2022-12-07T06:09:53;3.10;99.90
3818;DHT22;1924;48.078;11.516;2022-12-07T06:12:20;3.00;99.90
3818;DHT22;1924;48.078;11.516;2022-12-07T06:15:03;3.10;99.90
3818;DHT22;1924;48.078;11.516;2022-12-07T06:17:30;3.00;99.90
3818;DHT22;1924;48.078;11.516;2022-12-07T06:19:56;3.10;99.90
3818;DHT22;1924;48.078;11.516;2022-12-07T06:22:23;3.10;99.90
3818;DHT22;1924;48.078;11.516;2022-12-07T06:24:50;3.10;99.90
3818;DHT22;1924;48.078;11.516;2022-12-07T06:27:18;3.20;99.90
3818;DHT22;1924;48.078;11.516;2022-12-07T06:29:45;3.10;99.90
3818;DHT22;1924;48.078;11.516;2022-12-07T06:32:11;3.20;99.90
3818;DHT22;1924;48.078;11.516;2022-12-07T06:34:38;3.30;99.90
3818;DHT22;1924;48.078;11.516;2022-12-07T06:37:05;3.40;99.90
3818;DHT22;1924;48.078;11.516;2022-12-07T06:39:32;3.30;99.90
3818;DHT22;1924;48.078;11.516;2022-12-07T06:41:59;3.30;99.90
3818;DHT22;1924;48.078;11.516;2022-12-07T06:44:27;3.30;99.90
3818;DHT22;1924;48.078;11.516;2022-12-07T06:46:53;3.20;99.90
3818;DHT22;1924;48.078;11.516;2022-12-07T06:49:22;3.20;99.90
3818;DHT22;1924;48.078;11.516;2022-12-07T06:51:49;3.30;99.90
3818;DHT22;1924;48.078;11.516;2022-12-07T06:54:17;3.20;99.90
3818;DHT22;1924;48.078;11.516;2022-12-07T06:56:44;3.20;99.90
3818;DHT22;1924;48.078;11.516;2022-12-07T06:59:10;3.20;99.90
3818;DHT22;1924;48.078;11.516;2022-12-07T07:01:38;3.20;99.90
3818;DHT22;1924;48.078;11.516;2022-12-07T07:04:05;3.20;99.90
3818;DHT22;1924;48.078;11.516;2022-12-07T07:06:32;3.20;99.90
3818;DHT22;1924;48.078;11.516;2022-12-07T07:08:59;3.10;99.90
3818;DHT22;1924;48.078;11.516;2022-12-07T07:11:26;3.10;99.90
3818;DHT22;1924;48.078;11.516;2022-12-07T07:13:52;3.20;99.90
3818;DHT22;1924;48.078;11.516;2022-12-07T07:16:22;3.10;99.90
3818;DHT22;1924;48.078;11.516;2022-12-07T07:18:50;3.10;99.90
3818;DHT22;1924;48.078;11.516;2022-12-07T07:21:17;3.20;99.90
3818;DHT22;1924;48.078;11.516;2022-12-07T07:23:44;3.10;99.90
3818;DHT22;1924;48.078;11.516;2022-12-07T07:26:13;3.20;99.90
3818;DHT22;1924;48.078;11.516;2022-12-07T07:28:41;3.20;99.90
3818;DHT22;1924;48.078;11.516;2022-12-07T07:31:07;3.30;99.90
3818;DHT22;1924;48.078;11.516;2022-12-07T07:33:34;3.20;99.90
3818;DHT22;1924;48.078;11.516;2022-12-07T07:36:02;3.10;99.90
3818;DHT22;1924;48.078;11.516;2022-12-07T07:38:29;3.20;99.90
3818;DHT22;1924;48.078;11.516;2022-12-07T07:40:56;3.30;99.90
3818;DHT22;1924;48.078;11.516;2022-12-07T07:43:23;3.30;99.90
3818;DHT22;1924;48.078;11.516;2022-12-07T07:45:49;3.10;99.90
3818;DHT22;1924;48.078;11.516;2022-12-07T07:48:16;3.00;99.90
3818;DHT22;1924;48.078;11.516;2022-12-07T07:50:43;3.00;99.90
3818;DHT22;1924;48.078;11.516;2022-12-07T07:53:11;3.10;99.90
3818;DHT22;1924;48.078;11.516;2022-12-07T07:55:38;3.20;99.90
3818;DHT22;1924;48.078;11.516;2022-12-07T07:58:04;3.30;99.90
3818;DHT22;1924;48.078;11.516;2022-12-07T08:00:31;3.20;99.90
3818;DHT22;1924;48.078;11.516;2022-12-07T08:02:58;3.10;99.90
3818;DHT22;1924;48.078;11.516;2022-12-07T08:05:25;3.20;99.90
3818;DHT22;1924;48.078;11.516;2022-12-07T08:07:52;3.20;99.90
3818;DHT22;1924;48.078;11.516;2022-12-07T08:10:20;3.20;99.90
3818;DHT22;1924;48.078;11.516;2022-12-07T08:12:46;3.10;99.90
3818;DHT22;1924;48.078;11.516;2022-12-07T08:15:31;3.10;99.90
3818;DHT22;1924;48.078;11.516;2022-12-07T08:17:58;3.20;99.90
3818;DHT22;1924;48.078;11.516;2022-12-07T08:20:25;3.20;99.90
3818;DHT22;1924;48.078;11.516;2022-12-07T08:22:52;3.20;99.90
3818;DHT22;1924;48.078;11.516;2022-12-07T08:25:20;3.20;99.90
3818;DHT22;1924;48.078;11.516;2022-12-07T08:27:47;3.30;99.90
3818;DHT22;1924;48.078;11.516;2022-12-07T08:30:15;3.40;99.90
3818;DHT22;1924;48.078;11.516;2022-12-07T08:32:41;3.50;99.90
3818;DHT22;1924;48.078;11.516;2022-12-07T08:35:08;3.60;99.90
3818;DHT22;1924;48.078;11.516;2022-12-07T08:37:36;3.50;99.90
3818;DHT22;1924;48.078;11.516;2022-12-07T08:40:04;3.60;99.90
3818;DHT22;1924;48.078;11.516;2022-12-07T08:42:32;3.50;99.90
3818;DHT22;1924;48.078;11.516;2022-12-07T08:45:06;3.60;99.90
3818;DHT22;1924;48.078;11.516;2022-12-07T08:47:33;3.50;99.90
3818;DHT22;1924;48.078;11.516;2022-12-07T08:50:01;3.50;99.90
3818;DHT22;1924;48.078;11.516;2022-12-07T08:52:29;3.50;99.90
3818;DHT22;1924;48.078;11.516;2022-12-07T08:54:56;3.40;99.90
3818;DHT22;1924;48.078;11.516;2022-12-07T08:57:24;3.50;99.90
3818;DHT22;1924;48.078;11.516;2022-12-07T08:59:52;3.50;99.90
3818;DHT22;1924;48.078;11.516;2022-12-07T09:02:18;3.50;99.90
3818;DHT22;1924;48.078;11.516;2022-12-07T09:04:45;3.50;99.90
3818;DHT22;1924;48.078;11.516;2022-12-07T09:07:12;3.50;99.90
3818;DHT22;1924;48.078;11.516;2022-12-07T09:09:39;3.70;99.90
3818;DHT22;1924;48.078;11.516;2022-12-07T09:12:06;3.70;99.90
3818;DHT22;1924;48.078;11.516;2022-12-07T09:14:32;3.60;99.90
3818;DHT22;1924;48.078;11.516;2022-12-07T09:17:06;3.50;99.90
3818;DHT22;1924;48.078;11.516;2022-12-07T09:19:33;3.50;99.90
3818;DHT22;1924;48.078;11.516;2022-12-07T09:22:00;3.60;99.90
3818;DHT22;1924;48.078;11.516;2022-12-07T09:24:27;3.60;99.90
3818;DHT22;1924;48.078;11.516;2022-12-07T09:26:54;3.60;99.90
3818;DHT22;1924;48.078;11.516;2022-12-07T09:29:21;3.70;99.90
3818;DHT22;1924;48.078;11.516;2022-12-07T09:31:47;3.80;99.90
3818;DHT22;1924;48.078;11.516;2022-12-07T09:34:15;3.80;99.90
3818;DHT22;1924;48.078;11.516;2022-12-07T09:36:43;3.70;99.90
3818;DHT22;1924;48.078;11.516;2022-12-07T09:39:09;3.70;99.90
3818;DHT22;1924;48.078;11.516;2022-12-07T09:41:38;3.80;99.90
3818;DHT22;1924;48.078;11.516;2022-12-07T09:44:09;3.80;99.90
3818;DHT22;1924;48.078;11.516;2022-12-07T09:46:39;3.80;99.90
3818;DHT22;1924;48.078;11.516;2022-12-07T09:49:11;3.80;99.90
3818;DHT22;1924;48.078;11.516;2022-12-07T09:51:40;3.80;99.90
3818;DHT22;1924;48.078;11.516;2022-12-07T09:54:08;3.70;99.90
3818;DHT22;1924;48.078;11.516;2022-12-07T09:56:38;3.90;99.90
3818;DHT22;1924;48.078;11.516;2022-12-07T09:59:05;4.10;99.90
3818;DHT22;1924;48.078;11.516;2022-12-07T10:01:33;4.00;99.90
3818;DHT22;1924;48.078;11.516;2022-12-07T10:04:08;4.00;99.90
3818;DHT22;1924;48.078;11.516;2022-12-07T10:06:36;3.90;99.90
3818;DHT22;1924;48.078;11.516;2022-12-07T10:09:09;4.00;99.90
3818;DHT22;1924;48.078;11.516;2022-12-07T10:12:01;4.10;99.90
3818;DHT22;1924;48.078;11.516;2022-12-07T10:14:29;4.10;99.90
3818;DHT22;1924;48.078;11.516;2022-12-07T10:16:56;4.20;99.90
3818;DHT22;1924;48.078;11.516;2022-12-07T10:19:25;4.30;99.90
3818;DHT22;1924;48.078;11.516;2022-12-07T10:22:04;4.10;99.90
3818;DHT22;1924;48.078;11.516;2022-12-07T10:24:32;4.10;99.90
3818;DHT22;1924;48.078;11.516;2022-12-07T10:26:59;4.00;99.90
3818;DHT22;1924;48.078;11.516;2022-12-07T10:29:30;4.00;99.90
3818;DHT22;1924;48.078;11.516;2022-12-07T10:31:59;4.20;99.90
3818;DHT22;1924;48.078;11.516;2022-12-07T10:34:28;4.30;99.90
3818;DHT22;1924;48.078;11.516;2022-12-07T10:37:17;4.40;99.90
3818;DHT22;1924;48.078;11.516;2022-12-07T10:39:49;4.40;99.90
3818;DHT22;1924;48.078;11.516;2022-12-07T10:42:18;4.30;99.90
3818;DHT22;1924;48.078;11.516;2022-12-07T10:44:49;4.20;99.90
3818;DHT22;1924;48.078;11.516;2022-12-07T10:47:25;4.30;99.90
3818;DHT22;1924;48.078;11.516;2022-12-07T10:50:24;4.20;99.90
3818;DHT22;1924;48.078;11.516;2022-12-07T10:56:11;4.40;99.90
3818;DHT22;1924;48.078;11.516;2022-12-07T10:58:52;4.20;99.90
3818;DHT22;1924;48.078;11.516;2022-12-07T11:01:24;4.30;99.90
3818;DHT22;1924;48.078;11.516;2022-12-07T11:04:10;4.40;99.90
3818;DHT22;1924;48.078;11.516;2022-12-07T11:06:48;4.50;99.90
3818;DHT22;1924;48.078;11.516;2022-12-07T11:12:28;4.80;99.90
3818;DHT22;1924;48.078;11.516;2022-12-07T11:15:00;4.80;99.90
3818;DHT22;1924;48.078;11.516;2022-12-07T11:17:35;4.90;99.90
3818;DHT22;1924;48.078;11.516;2022-12-07T11:20:15;5.00;99.90
3818;DHT22;1924;48.078;11.516;2022-12-07T11:22:51;4.90;99.90
3818;DHT22;1924;48.078;11.516;2022-12-07T11:25:26;4.90;99.90
3818;DHT22;1924;48.078;11.516;2022-12-07T11:28:07;4.90;99.90
3818;DHT22;1924;48.078;11.516;2022-12-07T11:30:40;4.70;99.90
3818;DHT22;1924;48.078;11.516;2022-12-07T11:33:17;4.60;99.90
3818;DHT22;1924;48.078;11.516;2022-12-07T11:35:54;4.40;99.90
3818;DHT22;1924;48.078;11.516;2022-12-07T11:38:27;4.50;99.90
3818;DHT22;1924;48.078;11.516;2022-12-07T11:41:01;4.40;99.90
3818;DHT22;1924;48.078;11.516;2022-12-07T11:43:48;4.50;99.90
3818;DHT22;1924;48.078;11.516;2022-12-07T11:46:17;4.50;99.90
3818;DHT22;1924;48.078;11.516;2022-12-07T11:48:47;4.40;99.90
3818;DHT22;1924;48.078;11.516;2022-12-07T11:51:18;4.40;99.90
3818;DHT22;1924;48.078;11.516;2022-12-07T11:53:51;4.40;99.90
3818;DHT22;1924;48.078;11.516;2022-12-07T11:56:21;4.40;99.90
3818;DHT22;1924;48.078;11.516;2022-12-07T11:58:55;4.50;99.90
3818;DHT22;1924;48.078;11.516;2022-12-07T12:01:35;4.50;99.90
3818;DHT22;1924;48.078;11.516;2022-12-07T12:04:14;4.40;99.90
3818;DHT22;1924;48.078;11.516;2022-12-07T12:06:45;4.40;99.90
3818;DHT22;1924;48.078;11.516;2022-12-07T12:09:14;4.40;99.90
3818;DHT22;1924;48.078;11.516;2022-12-07T12:11:54;4.20;99.90
3818;DHT22;1924;48.078;11.516;2022-12-07T12:14:46;4.20;99.90
3818;DHT22;1924;48.078;11.516;2022-12-07T12:17:31;4.20;99.90
3818;DHT22;1924;48.078;11.516;2022-12-07T12:20:06;4.20;99.90
3818;DHT22;1924;48.078;11.516;2022-12-07T12:22:43;4.20;99.90
3818;DHT22;1924;48.078;11.516;2022-12-07T12:25:19;4.30;99.90
3818;DHT22;1924;48.078;11.516;2022-12-07T12:27:47;4.30;99.90
3818;DHT22;1924;48.078;11.516;2022-12-07T12:30:29;4.40;99.90
3818;DHT22;1924;48.078;11.516;2022-12-07T12:33:03;4.50;99.90
3818;DHT22;1924;48.078;11.516;2022-12-07T12:35:32;4.50;99.90
3818;DHT22;1924;48.078;11.516;2022-12-07T12:38:26;4.50;99.90
3818;DHT22;1924;48.078;11.516;2022-12-07T12:40:54;4.50;99.90
3818;DHT22;1924;48.078;11.516;2022-12-07T12:43:40;4.50;99.90
3818;DHT22;1924;48.078;11.516;2022-12-07T12:49:34;4.60;99.90
3818;DHT22;1924;48.078;11.516;2022-12-07T12:55:13;4.60;99.90
3818;DHT22;1924;48.078;11.516;2022-12-07T12:57:44;4.60;99.90
3818;DHT22;1924;48.078;11.516;2022-12-07T13:00:17;4.50;99.90
3818;DHT22;1924;48.078;11.516;2022-12-07T13:02:49;4.50;99.90
3818;DHT22;1924;48.078;11.516;2022-12-07T13:05:19;4.70;99.90
3818;DHT22;1924;48.078;11.516;2022-12-07T13:07:54;4.70;99.90
3818;DHT22;1924;48.078;11.516;2022-12-07T13:10:30;4.60;99.90
3818;DHT22;1924;48.078;11.516;2022-12-07T13:13:00;4.60;99.90
3818;DHT22;1924;48.078;11.516;2022-12-07T13:15:37;4.50;99.90
3818;DHT22;1924;48.078;11.516;2022-12-07T13:18:23;4.50;99.90
3818;DHT22;1924;48.078;11.516;2022-12-07T13:20:54;4.50;99.90
3818;DHT22;1924;48.078;11.516;2022-12-07T13:23:31;4.60;99.90
3818;DHT22;1924;48.078;11.516;2022-12-07T13:26:13;4.70;99.90
3818;DHT22;1924;48.078;11.516;2022-12-07T13:28:42;4.70;99.90
3818;DHT22;1924;48.078;11.516;2022-12-07T13:31:28;4.70;99.90
3818;DHT22;1924;48.078;11.516;2022-12-07T13:33:57;4.50;99.90
3818;DHT22;1924;48.078;11.516;2022-12-07T13:36:26;4.50;99.90
3818;DHT22;1924;48.078;11.516;2022-12-07T13:38:55;4.40;99.90
3818;DHT22;1924;48.078;11.516;2022-12-07T13:41:23;4.40;99.90
3818;DHT22;1924;48.078;11.516;2022-12-07T13:43:54;4.40;99.90
3818;DHT22;1924;48.078;11.516;2022-12-07T13:46:31;4.50;99.90
3818;DHT22;1924;48.078;11.516;2022-12-07T13:48:59;4.50;99.90
3818;DHT22;1924;48.078;11.516;2022-12-07T13:51:28;4.60;99.90
3818;DHT22;1924;48.078;11.516;2022-12-07T13:53:59;4.50;99.90
3818;DHT22;1924;48.078;11.516;2022-12-07T13:56:31;4.50;99.90
3818;DHT22;1924;48.078;11.516;2022-12-07T13:58:58;4.50;99.90
3818;DHT22;1924;48.078;11.516;2022-12-07T14:01:26;4.60;99.90
3818;DHT22;1924;48.078;11.516;2022-12-07T14:03:53;4.50;99.90
3818;DHT22;1924;48.078;11.516;2022-12-07T14:06:24;4.40;99.90
3818;DHT22;1924;48.078;11.516;2022-12-07T14:09:08;4.50;99.90
3818;DHT22;1924;48.078;11.516;2022-12-07T14:11:35;4.50;99.90
3818;DHT22;1924;48.078;11.516;2022-12-07T14:14:02;4.40;99.90
3818;DHT22;1924;48.078;11.516;2022-12-07T14:16:31;4.50;99.90
3818;DHT22;1924;48.078;11.516;2022-12-07T14:19:00;4.60;99.90
3818;DHT22;1924;48.078;11.516;2022-12-07T14:21:29;4.60;99.90
3818;DHT22;1924;48.078;11.516;2022-12-07T14:24:11;4.60;99.90
3818;DHT22;1924;48.078;11.516;2022-12-07T14:26:38;4.50;99.90
3818;DHT22;1924;48.078;11.516;2022-12-07T14:29:28;4.40;99.90
3818;DHT22;1924;48.078;11.516;2022-12-07T14:31:57;4.30;99.90
3818;DHT22;1924;48.078;11.516;2022-12-07T14:34:24;4.20;99.90
3818;DHT22;1924;48.078;11.516;2022-12-07T14:36:52;4.10;99.90
3818;DHT22;1924;48.078;11.516;2022-12-07T14:39:20;4.10;99.90
3818;DHT22;1924;48.078;11.516;2022-12-07T14:41:47;4.00;99.90
3818;DHT22;1924;48.078;11.516;2022-12-07T14:44:17;3.90;99.90
3818;DHT22;1924;48.078;11.516;2022-12-07T14:46:44;3.90;99.90
3818;DHT22;1924;48.078;11.516;2022-12-07T14:49:11;3.90;99.90
3818;DHT22;1924;48.078;11.516;2022-12-07T14:51:39;3.80;99.90
3818;DHT22;1924;48.078;11.516;2022-12-07T14:54:09;3.70;99.90
3818;DHT22;1924;48.078;11.516;2022-12-07T14:56:40;3.80;99.90
3818;DHT22;1924;48.078;11.516;2022-12-07T14:59:07;3.70;99.90
3818;DHT22;1924;48.078;11.516;2022-12-07T15:01:34;3.70;99.90
3818;DHT22;1924;48.078;11.516;2022-12-07T15:04:00;3.60;99.90
3818;DHT22;1924;48.078;11.516;2022-12-07T15:06:27;3.50;99.90
3818;DHT22;1924;48.078;11.516;2022-12-07T15:08:54;3.60;99.90
3818;DHT22;1924;48.078;11.516;2022-12-07T15:11:21;3.50;99.90
3818;DHT22;1924;48.078;11.516;2022-12-07T15:13:49;3.40;99.90
3818;DHT22;1924;48.078;11.516;2022-12-07T15:16:37;3.30;99.90
3818;DHT22;1924;48.078;11.516;2022-12-07T15:19:05;3.30;99.90
3818;DHT22;1924;48.078;11.516;2022-12-07T15:21:32;3.30;99.90
3818;DHT22;1924;48.078;11.516;2022-12-07T15:23:59;3.30;99.90
3818;DHT22;1924;48.078;11.516;2022-12-07T15:26:26;3.20;99.90
3818;DHT22;1924;48.078;11.516;2022-12-07T15:28:54;3.00;99.90
3818;DHT22;1924;48.078;11.516;2022-12-07T15:31:20;3.00;99.90
3818;DHT22;1924;48.078;11.516;2022-12-07T15:33:47;2.80;99.90
3818;DHT22;1924;48.078;11.516;2022-12-07T15:36:19;2.90;99.90
3818;DHT22;1924;48.078;11.516;2022-12-07T15:38:46;3.00;99.90
3818;DHT22;1924;48.078;11.516;2022-12-07T15:41:13;2.90;99.90
3818;DHT22;1924;48.078;11.516;2022-12-07T15:43:40;2.90;99.90
3818;DHT22;1924;48.078;11.516;2022-12-07T15:46:30;2.80;99.90
3818;DHT22;1924;48.078;11.516;2022-12-07T15:48:57;2.80;99.90
3818;DHT22;1924;48.078;11.516;2022-12-07T15:51:24;2.80;99.90
3818;DHT22;1924;48.078;11.516;2022-12-07T15:53:51;2.70;99.90
3818;DHT22;1924;48.078;11.516;2022-12-07T15:56:17;2.80;99.90
3818;DHT22;1924;48.078;11.516;2022-12-07T15:58:44;2.90;99.90
3818;DHT22;1924;48.078;11.516;2022-12-07T16:01:11;3.10;99.90
3818;DHT22;1924;48.078;11.516;2022-12-07T16:03:39;3.00;99.90
3818;DHT22;1924;48.078;11.516;2022-12-07T16:06:06;2.80;99.90
3818;DHT22;1924;48.078;11.516;2022-12-07T16:08:33;2.70;99.90
3818;DHT22;1924;48.078;11.516;2022-12-07T16:11:03;2.70;99.90
3818;DHT22;1924;48.078;11.516;2022-12-07T16:13:30;2.70;99.90
3818;DHT22;1924;48.078;11.516;2022-12-07T16:15:57;2.60;99.90
3818;DHT22;1924;48.078;11.516;2022-12-07T16:18:24;2.60;99.90
3818;DHT22;1924;48.078;11.516;2022-12-07T16:20:52;2.50;99.90
3818;DHT22;1924;48.078;11.516;2022-12-07T16:23:18;2.40;99.90
3818;DHT22;1924;48.078;11.516;2022-12-07T16:25:45;2.40;99.90
3818;DHT22;1924;48.078;11.516;2022-12-07T16:28:12;2.50;99.90
3818;DHT22;1924;48.078;11.516;2022-12-07T16:30:39;2.40;99.90
3818;DHT22;1924;48.078;11.516;2022-12-07T16:33:05;2.30;99.90
3818;DHT22;1924;48.078;11.516;2022-12-07T16:35:32;2.30;99.90
3818;DHT22;1924;48.078;11.516;2022-12-07T16:38:00;2.40;99.90
3818;DHT22;1924;48.078;11.516;2022-12-07T16:40:27;2.30;99.90
3818;DHT22;1924;48.078;11.516;2022-12-07T16:42:54;2.50;99.90
3818;DHT22;1924;48.078;11.516;2022-12-07T16:45:20;2.50;99.90
3818;DHT22;1924;48.078;11.516;2022-12-07T16:47:47;2.40;99.90
3818;DHT22;1924;48.078;11.516;2022-12-07T16:50:14;2.40;99.90
3818;DHT22;1924;48.078;11.516;2022-12-07T16:52:41;2.30;99.90